createdAt,value
2018-05-18T00:13:43.014Z,5.13
2018-05-18T00:34:17.328Z,3.33
2018-05-18T00:54:50.241Z,5.27
2018-05-18T01:15:29.793Z,5.20
2018-05-18T01:36:06.991Z,6.00
2018-05-18T01:56:47.115Z,6.27
2018-05-18T02:35:27.743Z,6.13
2018-05-18T02:56:02.697Z,6.50
2018-05-18T03:16:37.363Z,6.70
2018-05-18T03:37:11.716Z,7.07
2018-05-18T03:57:49.147Z,7.40
2018-05-18T04:18:23.178Z,7.60
2018-05-18T04:38:58.149Z,25.53
2018-05-18T04:59:31.575Z,32.30
2018-05-18T05:20:04.694Z,32.03
2018-05-18T05:40:38.123Z,29.27
2018-05-18T06:01:10.324Z,28.13
2018-05-18T06:21:47.436Z,26.97
2018-05-18T06:42:21.902Z,24.00
2018-05-18T07:02:57.292Z,27.20
2018-05-18T07:23:31.348Z,25.10
2018-05-18T07:44:05.454Z,23.23
2018-05-18T08:04:38.576Z,20.97
2018-05-18T08:25:15.692Z,21.13
2018-05-18T08:45:54.038Z,19.50
2018-05-18T09:06:28.656Z,16.43
2018-05-18T09:27:06.993Z,19.60
2018-05-18T09:47:43.010Z,16.47
2018-05-18T10:08:16.967Z,11.50
2018-05-18T10:28:52.237Z,10.00
2018-05-18T10:49:25.739Z,7.90
2018-05-18T11:09:58.488Z,6.13
2018-05-18T11:30:31.911Z,5.47
2018-05-18T11:51:07.187Z,5.20
2018-05-18T12:11:40.302Z,4.57
2018-05-18T12:32:12.742Z,5.40
2018-05-18T12:52:44.938Z,4.90
2018-05-18T13:13:18.750Z,4.90
2018-05-18T13:33:52.443Z,7.17
2018-05-18T13:54:24.376Z,9.60
2018-05-18T14:14:55.942Z,11.10
2018-05-18T14:53:27.375Z,13.70
2018-05-18T15:14:03.573Z,12.00
2018-05-18T15:34:38.842Z,11.17
2018-05-18T15:55:15.032Z,11.00
2018-05-18T16:15:47.237Z,11.10
2018-05-18T16:36:23.430Z,11.00
2018-05-18T16:56:58.014Z,8.67
2018-05-18T17:17:30.900Z,7.93
2018-05-18T17:38:04.446Z,7.43
2018-05-18T17:58:36.223Z,7.53
2018-05-18T18:19:10.574Z,7.50
2018-05-18T18:39:42.772Z,5.40
2018-05-18T19:00:19.317Z,5.07
2018-05-18T19:20:52.090Z,5.67
2018-05-18T19:41:29.508Z,5.33
2018-05-18T20:02:03.552Z,4.40
2018-05-18T20:22:36.988Z,5.27
2018-05-18T20:43:10.106Z,4.93
2018-05-18T21:03:43.225Z,5.83
2018-05-18T21:24:18.843Z,5.50
2018-05-18T21:44:52.861Z,5.60
2018-05-18T22:05:28.416Z,5.70
2018-05-18T22:26:04.309Z,7.17
2018-05-18T22:46:38.353Z,6.97
2018-05-18T23:07:12.700Z,6.03
2018-05-18T23:27:43.982Z,6.87
2018-05-18T23:48:18.336Z,7.73
